Time;durP1;ratioP1;P1;durP2;ratioP2;P2;SDS_P1;SDS_P2;PMS_P1;PMS_P2;Temp;Humidity;BMP_temperature;BMP_pressure;BME280_temperature;BME280_humidity;BME280_pressure;Samples;Min_cycle;Max_cycle;Signal;HPM_P1;HPM_P2
2022/07/24 00:01:07;;;;;;;10.17;6.43;;;;;;;;;;4996036;28;20196;-42
2022/07/24 00:03:33;;;;;;;11.00;6.50;;;;;;;;;;4991855;28;20673;-42
2022/07/24 00:05:59;;;;;;;10.83;6.20;;;;;;;;;;4994754;28;20177;-42
2022/07/24 00:08:25;;;;;;;9.07;6.00;;;;;;;;;;4995101;28;20396;-42
2022/07/24 00:10:51;;;;;;;9.53;6.67;;;;;;;;;;4992994;28;21120;-42
2022/07/24 00:13:17;;;;;;;10.33;6.47;;;;;;;;;;4994281;28;20387;-42
2022/07/24 00:15:43;;;;;;;11.00;6.20;;;;;;;;;;4996121;28;20918;-42
2022/07/24 00:18:09;;;;;;;8.13;5.97;;;;;;;;;;4994549;28;20445;-42
2022/07/24 00:20:35;;;;;;;9.83;6.07;;;;;;;;;;4993304;28;20510;-42
2022/07/24 00:23:02;;;;;;;8.80;6.33;;;;;;;;;;4997072;28;20185;-40
2022/07/24 00:25:28;;;;;;;9.73;6.13;;;;;;;;;;4994954;28;21154;-42
2022/07/24 00:27:54;;;;;;;10.67;6.27;;;;;;;;;;5025814;28;20326;-42
2022/07/24 00:30:20;;;;;;;10.37;6.40;;;;;;;;;;4993539;28;20592;-42
2022/07/24 00:32:46;;;;;;;9.60;6.27;;;;;;;;;;4994083;28;20703;-41
2022/07/24 00:35:13;;;;;;;8.00;6.40;;;;;;;;;;4993154;28;21241;-42
2022/07/24 00:37:39;;;;;;;9.37;5.83;;;;;;;;;;4990463;28;20496;-42
2022/07/24 00:40:06;;;;;;;8.23;6.00;;;;;;;;;;4989748;28;20183;-41
2022/07/24 00:42:32;;;;;;;10.27;6.30;;;;;;;;;;4997974;28;20227;-42
2022/07/24 00:44:58;;;;;;;9.60;6.20;;;;;;;;;;4991251;28;20540;-44
2022/07/24 00:47:24;;;;;;;9.40;6.10;;;;;;;;;;4991980;28;20192;-42
2022/07/24 00:49:50;;;;;;;8.87;5.90;;;;;;;;;;4991402;28;20579;-42
2022/07/24 00:52:16;;;;;;;10.90;6.00;;;;;;;;;;4996805;28;20420;-42
2022/07/24 00:54:42;;;;;;;13.33;6.43;;;;;;;;;;4994792;28;20195;-42
2022/07/24 00:57:08;;;;;;;15.00;6.20;;;;;;;;;;4994071;28;20231;-42
2022/07/24 00:59:34;;;;;;;8.70;6.03;;;;;;;;;;4993635;28;22001;-42
2022/07/24 01:02:01;;;;;;;9.13;5.80;;;;;;;;;;4994153;28;20177;-42
2022/07/24 01:04:27;;;;;;;8.80;6.33;;;;;;;;;;4991252;28;20302;-42
2022/07/24 01:06:53;;;;;;;11.07;6.67;;;;;;;;;;4989970;28;20762;-42
2022/07/24 01:09:19;;;;;;;10.70;6.00;;;;;;;;;;4990667;28;20176;-42
2022/07/24 01:11:45;;;;;;;9.60;6.10;;;;;;;;;;4992110;28;20186;-42
2022/07/24 01:14:12;;;;;;;9.07;5.53;;;;;;;;;;4983937;28;20574;-42
2022/07/24 01:16:38;;;;;;;8.20;6.23;;;;;;;;;;4987144;28;20190;-42
2022/07/24 01:19:04;;;;;;;8.80;5.40;;;;;;;;;;4994868;28;20193;-42
2022/07/24 01:21:30;;;;;;;9.17;6.40;;;;;;;;;;4995145;28;20177;-42
2022/07/24 01:23:56;;;;;;;7.97;6.10;;;;;;;;;;4993770;28;20385;-41
2022/07/24 01:26:22;;;;;;;8.10;5.87;;;;;;;;;;4997024;28;20177;-41
2022/07/24 01:28:49;;;;;;;10.17;6.27;;;;;;;;;;5000743;28;20180;-42
2022/07/24 01:31:15;;;;;;;8.80;5.53;;;;;;;;;;4998977;28;20638;-42
2022/07/24 01:33:41;;;;;;;8.87;6.27;;;;;;;;;;4995741;28;20927;-42
2022/07/24 01:36:07;;;;;;;8.87;6.13;;;;;;;;;;4998620;28;20432;-42
2022/07/24 01:38:33;;;;;;;11.43;6.20;;;;;;;;;;4998315;28;20693;-41
2022/07/24 01:40:59;;;;;;;8.57;5.70;;;;;;;;;;4995045;28;20494;-41
2022/07/24 01:43:25;;;;;;;8.93;6.10;;;;;;;;;;4998957;28;20193;-41
2022/07/24 01:45:51;;;;;;;10.10;6.43;;;;;;;;;;4998357;28;21383;-41
2022/07/24 01:48:17;;;;;;;9.37;6.67;;;;;;;;;;4996969;28;20176;-43
2022/07/24 01:50:43;;;;;;;8.10;5.67;;;;;;;;;;4999615;28;20762;-43
2022/07/24 01:53:10;;;;;;;9.97;6.20;;;;;;;;;;4996583;28;20194;-41
2022/07/24 01:55:36;;;;;;;10.50;6.57;;;;;;;;;;4995528;28;20189;-41
2022/07/24 01:58:02;;;;;;;8.70;6.37;;;;;;;;;;5000547;28;20455;-41
2022/07/24 02:00:29;;;;;;;11.13;6.63;;;;;;;;;;4998809;28;20703;-43
2022/07/24 02:02:55;;;;;;;12.57;6.60;;;;;;;;;;5027504;28;20363;-44
2022/07/24 02:05:21;;;;;;;8.63;6.50;;;;;;;;;;4995660;28;20219;-42
2022/07/24 02:07:54;;;;;;;12.80;6.30;;;;;;;;;;4998851;28;20180;-42
2022/07/24 02:10:20;;;;;;;12.47;6.77;;;;;;;;;;4995692;28;20831;-40
2022/07/24 02:12:46;;;;;;;11.30;6.73;;;;;;;;;;4993422;28;21164;-42
2022/07/24 02:15:12;;;;;;;8.70;6.43;;;;;;;;;;4998049;28;20258;-43
2022/07/24 02:17:38;;;;;;;10.03;6.03;;;;;;;;;;4996961;28;21263;-43
2022/07/24 02:20:05;;;;;;;12.90;6.73;;;;;;;;;;4995960;28;20457;-43
2022/07/24 02:22:33;;;;;;;8.77;7.20;;;;;;;;;;4996012;28;20276;-43
2022/07/24 02:25:00;;;;;;;9.13;6.33;;;;;;;;;;4997854;28;20511;-43
2022/07/24 02:27:26;;;;;;;10.63;7.00;;;;;;;;;;4995432;28;20670;-43
2022/07/24 02:29:52;;;;;;;11.17;6.80;;;;;;;;;;4995987;28;20530;-44
2022/07/24 02:32:18;;;;;;;9.63;6.53;;;;;;;;;;4998911;28;20262;-43
2022/07/24 02:34:44;;;;;;;11.20;7.00;;;;;;;;;;4996973;28;20273;-43
2022/07/24 02:37:10;;;;;;;8.37;6.70;;;;;;;;;;4994422;28;20180;-42
2022/07/24 02:39:36;;;;;;;12.50;6.93;;;;;;;;;;4996275;28;20444;-43
2022/07/24 02:42:02;;;;;;;11.30;6.90;;;;;;;;;;4997275;28;20181;-43
2022/07/24 02:44:28;;;;;;;11.60;7.33;;;;;;;;;;4996467;28;20537;-43
2022/07/24 02:46:55;;;;;;;12.83;7.17;;;;;;;;;;4994844;28;20172;-42
2022/07/24 02:49:21;;;;;;;9.70;6.70;;;;;;;;;;4997284;28;20188;-43
2022/07/24 02:51:47;;;;;;;8.67;6.30;;;;;;;;;;4996685;28;20211;-42
2022/07/24 02:54:13;;;;;;;8.70;6.63;;;;;;;;;;4996191;28;20665;-43
2022/07/24 02:56:39;;;;;;;8.93;6.73;;;;;;;;;;4997780;28;20184;-43
2022/07/24 02:59:05;;;;;;;9.37;6.03;;;;;;;;;;4998403;28;20688;-43
2022/07/24 03:01:31;;;;;;;11.73;6.80;;;;;;;;;;4995982;28;20184;-43
2022/07/24 03:03:57;;;;;;;10.07;7.10;;;;;;;;;;4994940;28;20724;-43
2022/07/24 03:06:23;;;;;;;10.60;6.90;;;;;;;;;;4996927;28;20557;-43
2022/07/24 03:08:49;;;;;;;11.90;7.67;;;;;;;;;;4994999;28;20431;-43
2022/07/24 03:11:16;;;;;;;12.67;8.23;;;;;;;;;;4995224;28;20190;-43
2022/07/24 03:13:42;;;;;;;12.07;8.07;;;;;;;;;;4994465;28;20616;-42
2022/07/24 03:16:08;;;;;;;10.83;7.63;;;;;;;;;;4994125;28;20894;-43
2022/07/24 03:18:34;;;;;;;13.93;7.27;;;;;;;;;;4998171;28;20178;-43
2022/07/24 03:21:00;;;;;;;14.63;7.27;;;;;;;;;;4998627;28;20481;-43
2022/07/24 03:23:26;;;;;;;12.40;7.67;;;;;;;;;;4993639;28;20247;-43
2022/07/24 03:25:54;;;;;;;14.10;8.47;;;;;;;;;;4992961;28;20569;-43
2022/07/24 03:28:20;;;;;;;11.27;7.30;;;;;;;;;;4995029;28;20950;-43
2022/07/24 03:30:46;;;;;;;12.10;7.53;;;;;;;;;;4996362;28;20789;-43
2022/07/24 03:33:12;;;;;;;11.40;7.60;;;;;;;;;;4996392;28;20247;-43
2022/07/24 03:35:38;;;;;;;12.30;7.17;;;;;;;;;;4994269;28;20180;-42
2022/07/24 03:38:04;;;;;;;11.43;7.67;;;;;;;;;;4994547;28;20184;-43
2022/07/24 03:40:30;;;;;;;14.60;8.13;;;;;;;;;;4996278;28;20741;-42
2022/07/24 03:42:56;;;;;;;12.30;7.33;;;;;;;;;;4992705;28;20578;-43
2022/07/24 03:45:23;;;;;;;10.43;7.90;;;;;;;;;;4992404;28;20867;-43
2022/07/24 03:47:49;;;;;;;12.37;7.60;;;;;;;;;;4997951;28;20192;-43
2022/07/24 03:50:15;;;;;;;14.37;7.63;;;;;;;;;;4996089;28;20703;-42
2022/07/24 03:52:41;;;;;;;10.23;7.73;;;;;;;;;;4994587;28;20582;-43
2022/07/24 03:55:07;;;;;;;11.70;6.43;;;;;;;;;;4995044;28;20246;-43
2022/07/24 03:57:33;;;;;;;10.00;7.00;;;;;;;;;;4995944;28;20949;-43
2022/07/24 03:59:59;;;;;;;11.63;7.00;;;;;;;;;;4996219;28;20187;-43
2022/07/24 04:02:25;;;;;;;11.17;6.73;;;;;;;;;;4993520;28;20495;-43
2022/07/24 04:04:51;;;;;;;12.17;6.30;;;;;;;;;;4993565;28;20841;-42
2022/07/24 04:07:17;;;;;;;11.60;6.83;;;;;;;;;;4998707;28;20444;-41
2022/07/24 04:09:43;;;;;;;8.97;6.40;;;;;;;;;;4995193;28;20854;-42
2022/07/24 04:12:10;;;;;;;8.97;6.17;;;;;;;;;;4995982;28;20180;-41
2022/07/24 04:14:36;;;;;;;8.57;6.07;;;;;;;;;;4993637;28;20184;-41
2022/07/24 04:17:02;;;;;;;12.50;6.33;;;;;;;;;;4997235;28;20188;-41
2022/07/24 04:19:28;;;;;;;15.50;6.67;;;;;;;;;;4996866;28;20385;-42
2022/07/24 04:21:54;;;;;;;9.87;6.23;;;;;;;;;;4993387;28;20962;-42
2022/07/24 04:24:20;;;;;;;12.70;6.80;;;;;;;;;;4995504;28;20570;-42
2022/07/24 04:26:46;;;;;;;10.73;6.03;;;;;;;;;;4997297;28;20528;-42
2022/07/24 04:29:12;;;;;;;11.10;6.50;;;;;;;;;;4994177;28;20696;-42
2022/07/24 04:31:38;;;;;;;12.63;6.40;;;;;;;;;;4996254;28;20948;-42
2022/07/24 04:34:04;;;;;;;12.03;7.00;;;;;;;;;;4996814;28;20392;-42
2022/07/24 04:36:30;;;;;;;14.03;6.83;;;;;;;;;;4993586;28;20720;-42
2022/07/24 04:38:57;;;;;;;12.33;6.37;;;;;;;;;;4990280;28;20191;-42
2022/07/24 04:41:23;;;;;;;9.43;6.57;;;;;;;;;;4995854;28;20187;-42
2022/07/24 04:43:49;;;;;;;8.97;6.43;;;;;;;;;;4997665;28;20680;-42
2022/07/24 04:46:16;;;;;;;12.00;6.60;;;;;;;;;;4996698;28;20264;-42
2022/07/24 04:48:42;;;;;;;10.37;5.50;;;;;;;;;;4992594;28;20180;-41
2022/07/24 04:51:08;;;;;;;9.23;6.07;;;;;;;;;;4995002;28;20542;-42
2022/07/24 04:53:34;;;;;;;12.47;5.87;;;;;;;;;;4997212;28;20663;-42
2022/07/24 04:56:00;;;;;;;11.60;6.40;;;;;;;;;;4994302;28;20893;-42
2022/07/24 04:58:27;;;;;;;10.83;5.37;;;;;;;;;;4996009;28;20573;-42
2022/07/24 05:00:53;;;;;;;13.63;6.37;;;;;;;;;;4997710;28;20490;-42
2022/07/24 05:03:19;;;;;;;8.83;5.77;;;;;;;;;;5000920;28;20181;-42
2022/07/24 05:05:46;;;;;;;12.27;6.53;;;;;;;;;;5001192;28;20950;-42
2022/07/24 05:08:12;;;;;;;12.67;6.20;;;;;;;;;;4998298;28;20181;-41
2022/07/24 05:10:38;;;;;;;9.20;6.37;;;;;;;;;;4999735;28;20254;-42
2022/07/24 05:13:04;;;;;;;13.07;6.70;;;;;;;;;;4998445;28;20188;-44
2022/07/24 05:15:30;;;;;;;11.07;5.90;;;;;;;;;;4995573;28;21156;-44
2022/07/24 05:17:56;;;;;;;8.97;6.13;;;;;;;;;;5000943;28;20177;-44
2022/07/24 05:20:23;;;;;;;6.53;5.30;;;;;;;;;;5001174;28;20188;-44
2022/07/24 05:22:49;;;;;;;7.90;6.07;;;;;;;;;;4998978;28;20286;-43
2022/07/24 05:25:15;;;;;;;12.23;5.83;;;;;;;;;;4997278;28;20216;-44
2022/07/24 05:27:41;;;;;;;12.03;5.77;;;;;;;;;;5000398;28;20280;-44
2022/07/24 05:30:08;;;;;;;11.07;5.97;;;;;;;;;;5032319;28;21618;-42
2022/07/24 05:32:34;;;;;;;10.37;6.77;;;;;;;;;;5000262;28;20301;-42
2022/07/24 05:35:01;;;;;;;7.73;5.90;;;;;;;;;;4999393;28;20180;-42
2022/07/24 05:37:27;;;;;;;10.80;5.80;;;;;;;;;;4993656;28;20423;-42
2022/07/24 05:39:53;;;;;;;8.23;6.03;;;;;;;;;;4997644;28;20668;-42
2022/07/24 05:42:19;;;;;;;9.33;5.97;;;;;;;;;;4999088;28;20234;-42
2022/07/24 05:44:45;;;;;;;8.10;5.83;;;;;;;;;;4997691;28;20238;-42
2022/07/24 05:47:11;;;;;;;10.87;5.87;;;;;;;;;;4995040;28;20720;-42
2022/07/24 05:49:37;;;;;;;10.27;5.90;;;;;;;;;;4999482;28;20482;-42
2022/07/24 05:52:03;;;;;;;9.47;5.80;;;;;;;;;;4999642;28;20169;-42
2022/07/24 05:54:29;;;;;;;11.90;6.27;;;;;;;;;;4995091;28;20471;-40
2022/07/24 05:56:55;;;;;;;11.67;6.10;;;;;;;;;;4990955;28;20953;-42
2022/07/24 05:59:21;;;;;;;11.07;6.20;;;;;;;;;;4997535;28;20733;-41
2022/07/24 06:01:47;;;;;;;12.40;6.43;;;;;;;;;;4996577;28;20807;-42
2022/07/24 06:04:14;;;;;;;9.27;6.00;;;;;;;;;;4999540;28;20882;-42
2022/07/24 06:06:40;;;;;;;11.57;7.13;;;;;;;;;;4995989;28;20181;-42
2022/07/24 06:09:06;;;;;;;7.93;6.40;;;;;;;;;;4998463;28;20177;-42
2022/07/24 06:11:32;;;;;;;15.47;6.30;;;;;;;;;;5005885;28;20703;-41
2022/07/24 06:13:58;;;;;;;10.30;6.50;;;;;;;;;;5009774;28;20187;-42
2022/07/24 06:16:24;;;;;;;9.87;6.40;;;;;;;;;;5002107;28;20194;-42
2022/07/24 06:18:50;;;;;;;12.07;6.90;;;;;;;;;;5031200;28;20185;-42
2022/07/24 06:21:16;;;;;;;12.07;6.90;;;;;;;;;;4998838;28;20383;-41
2022/07/24 06:23:42;;;;;;;11.13;7.10;;;;;;;;;;5025429;28;20199;-42
2022/07/24 06:26:08;;;;;;;12.67;7.67;;;;;;;;;;4998864;28;20225;-42
2022/07/24 06:28:34;;;;;;;13.83;7.73;;;;;;;;;;5008135;28;20169;-42
2022/07/24 06:31:01;;;;;;;10.90;7.27;;;;;;;;;;5009475;28;20891;-42
2022/07/24 06:33:27;;;;;;;12.43;7.83;;;;;;;;;;5011644;28;21116;-42
2022/07/24 06:35:53;;;;;;;11.43;8.50;;;;;;;;;;5006301;28;20181;-42
2022/07/24 06:38:19;;;;;;;12.60;8.90;;;;;;;;;;5007246;28;20173;-42
2022/07/24 06:40:45;;;;;;;15.70;9.17;;;;;;;;;;5008648;28;20286;-42
2022/07/24 06:43:11;;;;;;;13.37;8.70;;;;;;;;;;5008032;28;20176;-42
2022/07/24 06:45:37;;;;;;;16.20;9.37;;;;;;;;;;5008462;28;20582;-42
2022/07/24 06:48:04;;;;;;;14.73;9.00;;;;;;;;;;5008665;28;20160;-42
2022/07/24 06:50:30;;;;;;;13.33;8.37;;;;;;;;;;5009164;28;20191;-42
2022/07/24 06:52:56;;;;;;;12.97;8.90;;;;;;;;;;5006193;28;20180;-42
2022/07/24 06:55:22;;;;;;;11.03;9.50;;;;;;;;;;5005183;28;20283;-42
2022/07/24 06:57:48;;;;;;;14.00;10.70;;;;;;;;;;5007591;28;21088;-42
2022/07/24 07:00:15;;;;;;;16.80;10.63;;;;;;;;;;5010747;28;20234;-43
2022/07/24 07:02:41;;;;;;;16.00;10.73;;;;;;;;;;5009333;28;20172;-42
2022/07/24 07:05:08;;;;;;;17.50;11.70;;;;;;;;;;5006516;28;20196;-42
2022/07/24 07:07:36;;;;;;;15.80;12.30;;;;;;;;;;5007576;28;20598;-42
2022/07/24 07:10:02;;;;;;;18.37;11.67;;;;;;;;;;5008268;28;20173;-42
2022/07/24 07:12:29;;;;;;;18.50;13.10;;;;;;;;;;5006565;28;20532;-42
2022/07/24 07:14:55;;;;;;;15.90;11.87;;;;;;;;;;5005557;28;20539;-42
2022/07/24 07:17:21;;;;;;;16.13;12.70;;;;;;;;;;5007093;28;20616;-42
2022/07/24 07:19:47;;;;;;;19.77;11.40;;;;;;;;;;5011354;28;20203;-42
2022/07/24 07:22:13;;;;;;;18.70;14.30;;;;;;;;;;5007095;28;20172;-41
2022/07/24 07:24:39;;;;;;;13.50;11.87;;;;;;;;;;5007889;28;20779;-42
2022/07/24 07:27:05;;;;;;;15.97;12.43;;;;;;;;;;5007917;28;20240;-42
2022/07/24 07:29:31;;;;;;;18.07;13.73;;;;;;;;;;5009180;28;20184;-39
2022/07/24 07:31:57;;;;;;;19.13;12.20;;;;;;;;;;5006444;28;20519;-42
2022/07/24 07:34:23;;;;;;;16.70;13.60;;;;;;;;;;5004642;28;20180;-42
2022/07/24 07:36:50;;;;;;;16.87;12.00;;;;;;;;;;5008541;28;20222;-42
2022/07/24 07:39:16;;;;;;;20.63;13.93;;;;;;;;;;5007799;28;20177;-42
2022/07/24 07:41:42;;;;;;;16.77;12.10;;;;;;;;;;5008975;28;20187;-42
2022/07/24 07:44:08;;;;;;;19.00;11.70;;;;;;;;;;5006708;28;20505;-42
2022/07/24 07:46:34;;;;;;;15.23;10.93;;;;;;;;;;5009521;28;20176;-43
2022/07/24 07:49:00;;;;;;;18.40;11.20;;;;;;;;;;5006744;28;20966;-42
2022/07/24 07:51:26;;;;;;;17.93;11.80;;;;;;;;;;5004622;28;20178;-43
2022/07/24 07:53:52;;;;;;;12.77;11.10;;;;;;;;;;5008541;28;20601;-43
2022/07/24 07:56:18;;;;;;;13.57;11.37;;;;;;;;;;5006150;28;20759;-43
2022/07/24 07:58:44;;;;;;;17.30;12.63;;;;;;;;;;5001014;28;20719;-43
2022/07/24 08:01:11;;;;;;;15.93;12.40;;;;;;;;;;5005126;28;20176;-42
2022/07/24 08:03:37;;;;;;;16.47;13.00;;;;;;;;;;5007063;28;20669;-42
2022/07/24 08:06:04;;;;;;;14.43;10.40;;;;;;;;;;5007443;28;20307;-42
2022/07/24 08:08:30;;;;;;;16.53;11.10;;;;;;;;;;5003759;28;20323;-42
2022/07/24 08:10:56;;;;;;;13.47;11.50;;;;;;;;;;5010523;28;20487;-42
2022/07/24 08:13:23;;;;;;;15.00;10.63;;;;;;;;;;5012641;28;20181;-44
2022/07/24 08:15:49;;;;;;;15.13;11.23;;;;;;;;;;5004997;28;20763;-42
2022/07/24 08:18:15;;;;;;;13.97;11.67;;;;;;;;;;5006543;28;20177;-42
2022/07/24 08:20:43;;;;;;;15.17;11.87;;;;;;;;;;5011238;28;20745;-42
2022/07/24 08:23:09;;;;;;;17.03;13.40;;;;;;;;;;5005846;28;20436;-42
2022/07/24 08:25:36;;;;;;;17.17;13.00;;;;;;;;;;5005126;28;20215;-42
2022/07/24 08:28:02;;;;;;;15.13;12.00;;;;;;;;;;5005054;28;20172;-42
2022/07/24 08:30:28;;;;;;;15.03;11.13;;;;;;;;;;5007157;28;20350;-42
2022/07/24 08:32:54;;;;;;;13.77;10.57;;;;;;;;;;5010841;28;20940;-42
2022/07/24 08:35:20;;;;;;;14.83;10.90;;;;;;;;;;5010745;28;20190;-42
2022/07/24 08:37:46;;;;;;;14.40;10.90;;;;;;;;;;5008060;28;20181;-42
2022/07/24 08:40:13;;;;;;;12.60;10.00;;;;;;;;;;5011450;28;20219;-42
2022/07/24 08:42:40;;;;;;;15.80;11.73;;;;;;;;;;5011582;28;20294;-42
2022/07/24 08:45:06;;;;;;;14.73;10.67;;;;;;;;;;5007668;28;20253;-44
2022/07/24 08:47:33;;;;;;;19.73;12.90;;;;;;;;;;5008975;28;20915;-44
2022/07/24 08:49:59;;;;;;;17.57;12.83;;;;;;;;;;5010800;28;20693;-42
2022/07/24 08:52:26;;;;;;;17.73;11.50;;;;;;;;;;5011240;28;20169;-42
2022/07/24 08:54:53;;;;;;;17.27;11.80;;;;;;;;;;5008691;28;20177;-43
2022/07/24 08:57:19;;;;;;;15.73;10.70;;;;;;;;;;5011385;28;20187;-43
2022/07/24 08:59:45;;;;;;;16.80;12.63;;;;;;;;;;5010468;28;20645;-42
2022/07/24 09:02:11;;;;;;;16.60;11.70;;;;;;;;;;5007276;28;20601;-43
2022/07/24 09:04:42;;;;;;;18.97;12.67;;;;;;;;;;5010907;28;20207;-42
2022/07/24 09:07:10;;;;;;;12.03;10.00;;;;;;;;;;5009200;28;20174;-44
2022/07/24 09:09:37;;;;;;;15.07;11.20;;;;;;;;;;5010132;28;20213;-42
2022/07/24 09:12:23;;;;;;;15.10;12.30;;;;;;;;;;5010369;28;20657;-42
2022/07/24 09:14:49;;;;;;;13.97;12.37;;;;;;;;;;5011761;28;20614;-44
2022/07/24 09:17:18;;;;;;;14.70;11.60;;;;;;;;;;5006975;28;20185;-42
2022/07/24 09:20:00;;;;;;;14.13;11.60;;;;;;;;;;5009994;28;20709;-42
2022/07/24 09:22:26;;;;;;;14.07;9.87;;;;;;;;;;5012874;28;20683;-42
2022/07/24 09:25:10;;;;;;;13.67;10.83;;;;;;;;;;5012718;28;20202;-42
2022/07/24 09:27:36;;;;;;;12.90;10.03;;;;;;;;;;5006553;28;20565;-42
2022/07/24 09:30:03;;;;;;;12.83;10.10;;;;;;;;;;5008936;28;20206;-42
2022/07/24 09:32:30;;;;;;;14.03;8.87;;;;;;;;;;5010237;28;20248;-42
2022/07/24 09:34:56;;;;;;;12.80;10.03;;;;;;;;;;5008982;28;20501;-42
2022/07/24 09:37:22;;;;;;;13.83;11.13;;;;;;;;;;5009972;28;20183;-42
2022/07/24 09:39:48;;;;;;;15.37;10.30;;;;;;;;;;5009693;28;20180;-41
2022/07/24 09:42:14;;;;;;;12.87;9.63;;;;;;;;;;5006399;28;20195;-42
2022/07/24 09:44:41;;;;;;;14.97;9.50;;;;;;;;;;5011416;28;20312;-42
2022/07/24 09:47:11;;;;;;;11.03;8.47;;;;;;;;;;5009534;28;21000;-42
2022/07/24 09:49:38;;;;;;;9.33;8.13;;;;;;;;;;5005935;28;20705;-42
2022/07/24 09:52:07;;;;;;;10.53;8.23;;;;;;;;;;5011599;28;21027;-42
2022/07/24 09:54:49;;;;;;;13.13;8.47;;;;;;;;;;5011311;28;20199;-42
2022/07/24 09:57:21;;;;;;;12.07;8.70;;;;;;;;;;5006779;28;20704;-41
2022/07/24 09:59:57;;;;;;;12.13;8.60;;;;;;;;;;5005219;28;20181;-42
2022/07/24 10:02:27;;;;;;;9.23;8.17;;;;;;;;;;5011771;28;20191;-42
2022/07/24 10:04:54;;;;;;;10.90;8.70;;;;;;;;;;5009318;28;21022;-41
2022/07/24 10:07:21;;;;;;;11.50;8.60;;;;;;;;;;5006184;28;20181;-43
2022/07/24 10:09:51;;;;;;;12.60;9.10;;;;;;;;;;5008736;28;20185;-42
2022/07/24 10:12:19;;;;;;;12.90;9.13;;;;;;;;;;5009606;28;20211;-43
2022/07/24 10:14:46;;;;;;;10.00;8.37;;;;;;;;;;5008852;28;20177;-43
2022/07/24 10:17:13;;;;;;;10.77;9.17;;;;;;;;;;5005647;28;20440;-43
2022/07/24 10:19:41;;;;;;;13.20;9.13;;;;;;;;;;5009321;28;20185;-43
2022/07/24 10:22:11;;;;;;;10.23;8.57;;;;;;;;;;5007118;28;20276;-42
2022/07/24 10:24:56;;;;;;;13.80;9.73;;;;;;;;;;5006630;28;20419;-43
2022/07/24 10:27:30;;;;;;;11.37;8.07;;;;;;;;;;5007788;28;20180;-43
2022/07/24 10:29:57;;;;;;;10.17;9.10;;;;;;;;;;5009333;28;20180;-43
2022/07/24 10:32:24;;;;;;;12.23;7.93;;;;;;;;;;5006658;28;20172;-42
2022/07/24 10:35:01;;;;;;;9.70;8.27;;;;;;;;;;5007654;28;20179;-42
2022/07/24 10:37:42;;;;;;;10.20;7.90;;;;;;;;;;5010928;28;20691;-42
2022/07/24 10:40:15;;;;;;;9.67;7.53;;;;;;;;;;5009197;28;20243;-44
2022/07/24 10:43:00;;;;;;;9.57;7.73;;;;;;;;;;5005106;28;20885;-42
2022/07/24 10:45:29;;;;;;;12.87;8.80;;;;;;;;;;5010792;28;20473;-42
2022/07/24 10:47:55;;;;;;;13.20;7.20;;;;;;;;;;5011232;28;20280;-42
2022/07/24 10:50:22;;;;;;;12.00;7.53;;;;;;;;;;5008718;28;20208;-42
2022/07/24 10:52:48;;;;;;;8.80;7.50;;;;;;;;;;5004080;28;20188;-42
2022/07/24 10:55:20;;;;;;;9.77;7.60;;;;;;;;;;5008339;28;20173;-43
2022/07/24 10:57:53;;;;;;;11.37;7.97;;;;;;;;;;5006268;28;20181;-42
2022/07/24 11:00:23;;;;;;;15.83;8.57;;;;;;;;;;5007076;28;20323;-41
2022/07/24 11:02:57;;;;;;;10.93;7.30;;;;;;;;;;5009814;28;20716;-42
2022/07/24 11:05:25;;;;;;;8.00;6.97;;;;;;;;;;5007337;28;20278;-42
2022/07/24 11:08:10;;;;;;;9.20;6.97;;;;;;;;;;5006230;28;20323;-42
2022/07/24 11:10:45;;;;;;;10.90;7.30;;;;;;;;;;5008503;28;20596;-42
2022/07/24 11:13:30;;;;;;;9.23;7.13;;;;;;;;;;5007746;28;20879;-43
2022/07/24 11:16:11;;;;;;;7.00;6.30;;;;;;;;;;5005092;28;20870;-42
2022/07/24 11:18:38;;;;;;;8.43;5.90;;;;;;;;;;5007449;28;20331;-43
2022/07/24 11:21:04;;;;;;;11.80;6.60;;;;;;;;;;5009823;28;20176;-42
2022/07/24 11:23:30;;;;;;;11.77;6.80;;;;;;;;;;5006427;28;20317;-42
2022/07/24 11:26:16;;;;;;;7.53;6.60;;;;;;;;;;5006825;28;20275;-43
2022/07/24 11:28:42;;;;;;;7.80;5.90;;;;;;;;;;5008324;28;20192;-43
2022/07/24 11:31:10;;;;;;;7.93;6.63;;;;;;;;;;5008167;28;20282;-43
2022/07/24 11:33:37;;;;;;;6.50;5.73;;;;;;;;;;5005053;28;20247;-42
2022/07/24 11:36:08;;;;;;;9.13;6.50;;;;;;;;;;5006267;28;20177;-43
2022/07/24 11:38:34;;;;;;;8.07;6.00;;;;;;;;;;5009740;28;20755;-41
2022/07/24 11:41:07;;;;;;;9.03;6.70;;;;;;;;;;5007097;28;21970;-43
2022/07/24 11:43:36;;;;;;;7.27;6.10;;;;;;;;;;5004665;28;20173;-42
2022/07/24 11:46:02;;;;;;;6.40;5.80;;;;;;;;;;5005431;28;20228;-43
2022/07/24 11:48:28;;;;;;;8.10;5.73;;;;;;;;;;5040767;28;20541;-43
2022/07/24 11:51:04;;;;;;;6.93;5.73;;;;;;;;;;5004363;28;20288;-43
2022/07/24 11:53:31;;;;;;;6.57;5.83;;;;;;;;;;5006134;28;20490;-42
2022/07/24 11:56:06;;;;;;;7.40;5.13;;;;;;;;;;5009267;28;20169;-44
2022/07/24 11:58:38;;;;;;;7.30;5.77;;;;;;;;;;5005377;28;20172;-44
2022/07/24 12:01:18;;;;;;;8.73;5.83;;;;;;;;;;5002471;28;20374;-44
2022/07/24 12:03:57;;;;;;;9.93;5.87;;;;;;;;;;5006960;28;20168;-42
2022/07/24 12:06:23;;;;;;;6.77;5.97;;;;;;;;;;5008082;28;21064;-42
2022/07/24 12:08:49;;;;;;;7.37;5.93;;;;;;;;;;5006029;28;20596;-43
2022/07/24 12:11:22;;;;;;;8.87;5.77;;;;;;;;;;5007102;28;20648;-42
2022/07/24 12:13:48;;;;;;;7.47;5.67;;;;;;;;;;5009901;28;20173;-42
2022/07/24 12:16:31;;;;;;;8.97;5.40;;;;;;;;;;5003761;28;20602;-42
2022/07/24 12:19:16;;;;;;;7.50;5.77;;;;;;;;;;5006059;28;20905;-42
2022/07/24 12:21:46;;;;;;;10.97;5.80;;;;;;;;;;5009264;28;20199;-42
2022/07/24 12:24:12;;;;;;;7.07;5.23;;;;;;;;;;5005295;28;20219;-42
2022/07/24 12:26:59;;;;;;;8.00;6.10;;;;;;;;;;5005960;28;20447;-43
2022/07/24 12:29:26;;;;;;;7.27;5.50;;;;;;;;;;5006767;28;20287;-43
2022/07/24 12:32:15;;;;;;;6.17;5.13;;;;;;;;;;5006072;28;20187;-42
2022/07/24 12:34:42;;;;;;;11.30;5.63;;;;;;;;;;5002735;28;20219;-41
2022/07/24 12:37:18;;;;;;;10.77;5.50;;;;;;;;;;5006107;28;20738;-42
2022/07/24 12:39:48;;;;;;;8.23;5.93;;;;;;;;;;5009968;28;20179;-44
2022/07/24 12:42:15;;;;;;;6.33;5.63;;;;;;;;;;5008077;28;20172;-43
2022/07/24 12:44:43;;;;;;;8.67;5.57;;;;;;;;;;5006293;28;20810;-42
2022/07/24 12:47:09;;;;;;;5.90;5.30;;;;;;;;;;5007218;28;20169;-44
2022/07/24 12:49:50;;;;;;;6.40;5.07;;;;;;;;;;5008003;28;20608;-44
2022/07/24 12:52:24;;;;;;;7.70;5.27;;;;;;;;;;5007484;28;20184;-44
2022/07/24 12:54:50;;;;;;;8.27;5.30;;;;;;;;;;5004140;28;20227;-44
2022/07/24 12:57:16;;;;;;;7.23;5.13;;;;;;;;;;5005817;28;20169;-42
2022/07/24 12:59:44;;;;;;;10.10;4.73;;;;;;;;;;5006911;28;20185;-42
2022/07/24 13:02:11;;;;;;;7.30;4.80;;;;;;;;;;5007324;28;20185;-42
2022/07/24 13:04:41;;;;;;;5.77;4.73;;;;;;;;;;5003787;28;20698;-42
2022/07/24 13:07:08;;;;;;;8.83;5.57;;;;;;;;;;5007359;28;20179;-42
2022/07/24 13:09:35;;;;;;;6.20;4.97;;;;;;;;;;5006265;28;20190;-42
2022/07/24 13:12:01;;;;;;;5.93;4.80;;;;;;;;;;5004234;28;20180;-42
2022/07/24 13:14:29;;;;;;;6.80;5.27;;;;;;;;;;5004751;28;20219;-42
2022/07/24 13:17:01;;;;;;;5.63;4.90;;;;;;;;;;5008400;28;20172;-42
2022/07/24 13:19:27;;;;;;;7.27;4.77;;;;;;;;;;5012117;28;20317;-43
2022/07/24 13:21:53;;;;;;;5.35;4.93;;;;;;;;;;5008319;28;20846;-42
2022/07/24 13:24:19;;;;;;;11.52;4.75;;;;;;;;;;5008466;28;20200;-42
2022/07/24 13:26:45;;;;;;;8.77;5.90;;;;;;;;;;5010328;28;20183;-43
2022/07/24 13:29:12;;;;;;;7.30;4.95;;;;;;;;;;5011407;28;20315;-42
2022/07/24 13:31:38;;;;;;;8.50;5.07;;;;;;;;;;5009788;28;20730;-43
2022/07/24 13:34:04;;;;;;;10.45;5.00;;;;;;;;;;5006650;28;20444;-42
2022/07/24 13:36:32;;;;;;;5.90;4.60;;;;;;;;;;5012217;28;20231;-42
2022/07/24 13:38:58;;;;;;;6.33;4.30;;;;;;;;;;5009010;28;20225;-42
2022/07/24 13:41:24;;;;;;;7.45;5.25;;;;;;;;;;5006898;28;20180;-42
2022/07/24 13:43:50;;;;;;;6.97;5.00;;;;;;;;;;5010126;28;20644;-42
2022/07/24 13:46:17;;;;;;;11.48;5.50;;;;;;;;;;5009930;28;20732;-42
2022/07/24 13:48:44;;;;;;;7.97;5.32;;;;;;;;;;5007929;28;20169;-42
2022/07/24 13:51:10;;;;;;;8.82;5.28;;;;;;;;;;5008373;28;21016;-42
2022/07/24 13:53:36;;;;;;;7.78;5.15;;;;;;;;;;5009178;28;20295;-42
2022/07/24 13:56:07;;;;;;;5.10;4.57;;;;;;;;;;5009067;28;20181;-42
2022/07/24 13:58:35;;;;;;;7.35;5.43;;;;;;;;;;5021771;28;20215;-42
2022/07/24 14:01:02;;;;;;;7.43;5.70;;;;;;;;;;5007161;28;20232;-43
2022/07/24 14:03:28;;;;;;;5.90;5.30;;;;;;;;;;5011100;28;20189;-43
2022/07/24 14:05:54;;;;;;;7.22;5.20;;;;;;;;;;5007328;28;20200;-43
2022/07/24 14:08:20;;;;;;;10.82;5.40;;;;;;;;;;5005733;28;20631;-44
2022/07/24 14:10:46;;;;;;;9.68;5.38;;;;;;;;;;5013267;28;20639;-43
2022/07/24 14:13:12;;;;;;;10.23;5.60;;;;;;;;;;5006333;28;20177;-44
2022/07/24 14:15:38;;;;;;;6.95;5.15;;;;;;;;;;5006898;28;21065;-44
2022/07/24 14:18:04;;;;;;;10.43;5.38;;;;;;;;;;5008542;28;20231;-44
2022/07/24 14:20:30;;;;;;;7.90;5.47;;;;;;;;;;5011569;28;20212;-43
2022/07/24 14:22:56;;;;;;;8.60;5.10;;;;;;;;;;5009231;28;20219;-42
2022/07/24 14:25:23;;;;;;;8.85;5.53;;;;;;;;;;5007600;28;20618;-43
2022/07/24 14:27:49;;;;;;;7.97;5.68;;;;;;;;;;5009214;28;20785;-43
2022/07/24 14:30:15;;;;;;;6.57;5.40;;;;;;;;;;5006650;28;20609;-43
2022/07/24 14:32:41;;;;;;;6.68;4.97;;;;;;;;;;5008740;28;20180;-43
2022/07/24 14:35:08;;;;;;;7.20;5.20;;;;;;;;;;5009912;28;20169;-43